| time (UTC) | temp F | wind direction | speed MPH | gust MPH | rain 1hr in | rain 24hr in | rain mn in | humidity % | barometer mb |
| 20260508110030 | 40 | 295 | 0.0 | 0.0 | 0.00 | 0.00 | 0.00 | 84 | 1010.9 |
| 20260508104526 | 39 | 295 | 0.0 | 0.0 | 0.00 | 0.00 | 0.00 | 85 | 1010.6 |
| 20260508103033 | 38 | 295 | 0.0 | 0.0 | 0.00 | 0.01 | 0.00 | 85 | 1010.5 |
| 20260508101522 | 38 | 295 | 0.0 | 0.0 | 0.00 | 0.01 | 0.00 | 84 | 1010.4 |
| 20260508100025 | 39 | 295 | 0.0 | 0.0 | 0.00 | 0.01 | 0.00 | 85 | 1010.2 |
| 20260508094517 | 39 | 295 | 0.0 | 0.0 | 0.00 | 0.01 | 0.00 | 84 | 1010.1 |
| 20260508093016 | 39 | 295 | 0.0 | 0.0 | 0.00 | 0.07 | 0.00 | 83 | 1010.0 |
| 20260508091515 | 39 | 295 | 0.0 | 0.0 | 0.00 | 0.07 | 0.00 | 82 | 1009.9 |
| 20260508090020 | 38 | 295 | 0.0 | 0.0 | 0.00 | 0.07 | 0.00 | 83 | 1009.9 |
| 20260508084508 | 38 | 295 | 0.0 | 0.0 | 0.00 | 0.07 | 0.00 | 83 | 1009.9 |
| 20260508083009 | 38 | 295 | 0.0 | 0.0 | 0.00 | 0.19 | 0.00 | 84 | 1009.6 |
| 20260508081517 | 37 | 295 | 0.0 | 0.0 | 0.00 | 0.19 | 0.00 | 84 | 1009.9 |
| 20260508080005 | 37 | 295 | 0.0 | 0.0 | 0.00 | 0.19 | 0.00 | 84 | 1009.8 |
| 20260508074503 | 38 | 295 | 0.0 | 0.0 | 0.00 | 0.19 | 0.00 | 82 | 1009.4 |
| 20260508073100 | 38 | 295 | 0.0 | 0.0 | 0.00 | 0.21 | 0.00 | 81 | 1009.2 |
| 20260508071558 | 38 | 295 | 0.0 | 0.0 | 0.00 | 0.21 | 0.00 | 81 | 1008.8 |
| 20260508070056 | 38 | 295 | 0.0 | 0.0 | 0.00 | 0.21 | 0.00 | 80 | 1008.7 |
| 20260508064555 | 39 | 295 | 0.0 | 0.0 | 0.00 | 0.21 | 0.00 | 77 | 1008.6 |
| 20260508063103 | 42 | 295 | 0.0 | 5.0 | 0.00 | 0.21 | 0.00 | 78 | 1008.4 |
| 20260508061554 | 39 | 266 | 0.0 | 0.0 | 0.00 | 0.21 | 0.00 | 78 | 1008.3 |
| 20260508060052 | 39 | 266 | 0.0 | 0.0 | 0.00 | 0.21 | 0.00 | 74 | 1008.1 |
| 20260508054645 | 39 | 266 | 0.0 | 0.0 | 0.00 | 0.21 | 0.00 | 75 | 1008.5 |
| 20260508053044 | 39 | 266 | 0.0 | 0.0 | 0.00 | 0.21 | 0.00 | 75 | 1008.5 |
| 20260508051542 | 40 | 266 | 0.0 | 0.0 | 0.00 | 0.21 | 0.00 | 76 | 1008.6 |
| 20260508050039 | 40 | 266 | 0.0 | 0.0 | 0.00 | 0.21 | 0.00 | 73 | 1008.8 |
| 20260508044537 | 41 | 266 | 0.0 | 0.0 | 0.00 | 0.21 | 0.00 | 70 | 1008.9 |
| 20260508043009 | 41 | 266 | 0.0 | 0.0 | 0.00 | 0.24 | 0.00 | 70 | 1009.0 |
| 20260508041504 | 42 | 266 | 0.0 | 0.0 | 0.00 | 0.24 | 0.00 | 69 | 1009.0 |
| 20260508040031 | 42 | 266 | 0.0 | 0.0 | 0.00 | 0.24 | 0.00 | 68 | 1009.0 |
| 20260508034529 | 43 | 266 | 0.0 | 0.0 | 0.00 | 0.24 | 0.00 | 67 | 1009.0 |
| 20260508033057 | 44 | 266 | 0.0 | 0.0 | 0.00 | 0.28 | 0.00 | 63 | 1008.9 |
| 20260508031556 | 45 | 266 | 0.0 | 0.0 | 0.00 | 0.28 | 0.00 | 62 | 1008.9 |
| 20260508030037 | 49 | 266 | 0.0 | 0.0 | 0.00 | 0.28 | 0.00 | 55 | 1008.9 |
| 20260508024545 | 51 | 266 | 0.0 | 0.0 | 0.00 | 0.28 | 0.00 | 51 | 1009.0 |
| 20260508023033 | 51 | 266 | 0.0 | 0.0 | 0.00 | 0.28 | 0.00 | 52 | 1008.9 |
| 20260508021633 | 52 | 263 | 0.0 | 4.0 | 0.00 | 0.28 | 0.00 | 47 | 1009.0 |
| 20260508020031 | 52 | 274 | 2.0 | 7.0 | 0.00 | 0.28 | 0.00 | 46 | 1009.0 |
| 20260508014537 | 52 | 255 | 0.0 | 4.0 | 0.00 | 0.28 | 0.00 | 51 | 1009.0 |
| 20260508013028 | 52 | 258 | 0.0 | 0.0 | 0.00 | 0.28 | 0.00 | 45 | 1008.9 |
| 20260508011625 | 53 | 276 | 0.0 | 4.0 | 0.00 | 0.28 | 0.00 | 46 | 1008.5 |
| 20260508010033 | 54 | 283 | 1.0 | 8.0 | 0.00 | 0.28 | 0.00 | 48 | 1008.3 |
| 20260508004523 | 54 | 272 | 0.0 | 5.0 | 0.00 | 0.28 | 0.00 | 45 | 1008.0 |
| 20260508003021 | 55 | 276 | 0.0 | 11.0 | 0.00 | 0.28 | 0.00 | 47 | 1007.8 |
| 20260508001620 | 55 | 320 | 8.0 | 16.0 | 0.00 | 0.28 | 0.00 | 45 | 1007.6 |
| 20260508000022 | 55 | 288 | 10.0 | 15.0 | 0.00 | 0.28 | 0.00 | 42 | 1007.6 |
| 20260507234519 | 56 | 297 | 12.0 | 17.0 | 0.00 | 0.28 | 0.00 | 44 | 1007.5 |
| 20260507231513 | 57 | 262 | 10.0 | 19.0 | 0.00 | 0.31 | 0.00 | 46 | 1007.2 |
| 20260507230009 | 57 | 272 | 11.0 | 17.0 | 0.00 | 0.31 | 0.00 | 44 | 1007.2 |
| 20260507224508 | 57 | 308 | 9.0 | 19.0 | 0.00 | 0.31 | 0.00 | 43 | 1007.0 |
| 20260507223006 | 57 | 303 | 13.0 | 19.0 | 0.00 | 0.33 | 0.00 | 43 | 1006.8 |
| 20260507221510 | 57 | 307 | 13.0 | 21.0 | 0.00 | 0.33 | 0.00 | 45 | 1006.9 |
| 20260507220059 | 58 | 290 | 8.0 | 17.0 | 0.00 | 0.33 | 0.00 | 46 | 1006.9 |
| 20260507214605 | 58 | 311 | 11.0 | 17.0 | 0.00 | 0.33 | 0.00 | 47 | 1006.7 |
| 20260507213057 | 58 | 303 | 7.0 | 17.0 | 0.00 | 0.38 | 0.33 | 42 | 1006.6 |
| 20260507211559 | 58 | 259 | 12.0 | 19.0 | 0.00 | 0.38 | 0.33 | 44 | 1006.4 |
| 20260507210059 | 58 | 317 | 10.0 | 17.0 | 0.00 | 0.38 | 0.33 | 45 | 1006.3 |
| 20260507204551 | 58 | 307 | 16.0 | 21.0 | 0.00 | 0.38 | 0.33 | 45 | 1006.1 |
| 20260507203104 | 58 | 285 | 7.0 | 16.0 | 0.00 | 0.44 | 0.33 | 46 | 1006.3 |
| 20260507201558 | 58 | 274 | 11.0 | 17.0 | 0.00 | 0.44 | 0.33 | 43 | 1006.3 |
| 20260507200103 | 58 | 301 | 12.0 | 17.0 | 0.00 | 0.44 | 0.33 | 44 | 1006.2 |
| 20260507194547 | 59 | 297 | 11.0 | 19.0 | 0.00 | 0.44 | 0.33 | 41 | 1006.3 |
| 20260507193048 | 58 | 328 | 10.0 | 21.0 | 0.00 | 0.49 | 0.33 | 43 | 1006.4 |
| 20260507191544 | 57 | 326 | 13.0 | 20.0 | 0.00 | 0.49 | 0.33 | 45 | 1006.7 |
| 20260507190039 | 58 | 286 | 8.0 | 19.0 | 0.00 | 0.49 | 0.33 | 39 | 1006.8 |
| 20260507184541 | 57 | 292 | 12.0 | 19.0 | 0.00 | 0.49 | 0.33 | 46 | 1006.9 |
| 20260507183037 | 57 | 252 | 5.0 | 15.0 | 0.00 | 0.52 | 0.33 | 47 | 1007.1 |
| 20260507181537 | 57 | 319 | 7.0 | 16.0 | 0.00 | 0.52 | 0.33 | 43 | 1007.2 |
| 20260507180038 | 57 | 323 | 13.0 | 22.0 | 0.00 | 0.52 | 0.33 | 46 | 1007.2 |
| 20260507174536 | 57 | 312 | 10.0 | 17.0 | 0.00 | 0.52 | 0.33 | 42 | 1007.5 |
| 20260507173033 | 56 | 278 | 11.0 | 17.0 | 0.00 | 0.52 | 0.33 | 44 | 1007.5 |
| 20260507171530 | 56 | 303 | 14.0 | 19.0 | 0.00 | 0.52 | 0.33 | 44 | 1007.5 |
| 20260507170105 | 56 | 328 | 12.0 | 19.0 | 0.00 | 0.52 | 0.33 | 44 | 1007.5 |
| 20260507164604 | 55 | 308 | 14.0 | 20.0 | 0.00 | 0.52 | 0.33 | 45 | 1007.7 |
| 20260507163055 | 55 | 288 | 9.0 | 19.0 | 0.00 | 0.52 | 0.33 | 48 | 1008.0 |
| 20260507161653 | 55 | 247 | 5.0 | 14.0 | 0.00 | 0.52 | 0.33 | 46 | 1008.0 |
| 20260507160055 | 55 | 274 | 7.0 | 17.0 | 0.00 | 0.52 | 0.33 | 48 | 1008.2 |
| 20260507154555 | 54 | 268 | 7.0 | 16.0 | 0.00 | 0.52 | 0.33 | 49 | 1008.2 |
| 20260507153048 | 54 | 290 | 8.0 | 15.0 | 0.00 | 0.52 | 0.33 | 53 | 1008.3 |
| 20260507151546 | 53 | 339 | 8.0 | 14.0 | 0.00 | 0.52 | 0.33 | 56 | 1008.4 |
| 20260507150046 | 53 | 297 | 6.0 | 14.0 | 0.00 | 0.52 | 0.33 | 58 | 1008.4 |
| 20260507144545 | 53 | 315 | 8.0 | 14.0 | 0.00 | 0.52 | 0.33 | 63 | 1008.5 |
| 20260507143039 | 53 | 284 | 8.0 | 14.0 | 0.00 | 0.52 | 0.33 | 60 | 1008.5 |
| 20260507141542 | 52 | 296 | 8.0 | 11.0 | 0.00 | 0.52 | 0.33 | 59 | 1008.7 |
| 20260507140038 | 52 | 288 | 7.0 | 13.0 | 0.00 | 0.52 | 0.33 | 67 | 1008.6 |
| 20260507134538 | 52 | 291 | 7.0 | 14.0 | 0.00 | 0.52 | 0.33 | 70 | 1008.6 |
| 20260507133052 | 51 | 293 | 5.0 | 13.0 | 0.00 | 0.52 | 0.33 | 73 | 1008.6 |
| 20260507133043 | 51 | 289 | 5.0 | 13.0 | 0.00 | 0.52 | 0.33 | 73 | 1008.6 |
| 20260507131534 | 51 | 302 | 11.0 | 18.0 | 0.00 | 0.52 | 0.33 | 74 | 1008.7 |
| 20260507130025 | 50 | 265 | 10.0 | 17.0 | 0.00 | 0.52 | 0.33 | 78 | 1008.7 |
| 20260507124529 | 50 | 289 | 12.0 | 16.0 | 0.00 | 0.52 | 0.33 | 81 | 1008.5 |
| 20260507123021 | 50 | 311 | 8.0 | 17.0 | 0.00 | 0.52 | 0.33 | 84 | 1008.4 |
| 20260507121603 | 49 | 268 | 5.0 | 10.0 | 0.00 | 0.52 | 0.33 | 86 | 1008.5 |
| 20260507120056 | 49 | 282 | 4.0 | 10.0 | 0.00 | 0.52 | 0.33 | 87 | 1008.5 |
| 20260507114617 | 49 | 283 | 3.0 | 8.0 | 0.00 | 0.52 | 0.33 | 88 | 1008.2 |
| 20260507113041 | 49 | 305 | 4.0 | 9.0 | 0.00 | 0.52 | 0.33 | 88 | 1008.2 |
| 20260507111540 | 49 | 297 | 3.0 | 8.0 | 0.00 | 0.52 | 0.33 | 87 | 1008.3 |